sensor_id;sensor_type;location;lat;lon;timestamp;temperature;humidity
19248;DHT22;9758;48.640;8.148;2023-05-14T00:01:19;15.20;52.60
19248;DHT22;9758;48.640;8.148;2023-05-14T00:03:46;15.20;52.60
19248;DHT22;9758;48.640;8.148;2023-05-14T00:06:13;15.20;52.60
19248;DHT22;9758;48.640;8.148;2023-05-14T00:08:41;15.20;52.60
19248;DHT22;9758;48.640;8.148;2023-05-14T00:11:08;15.20;52.60
19248;DHT22;9758;48.640;8.148;2023-05-14T00:13:35;15.20;52.50
19248;DHT22;9758;48.640;8.148;2023-05-14T00:16:02;15.20;53.20
19248;DHT22;9758;48.640;8.148;2023-05-14T00:18:29;15.20;52.60
19248;DHT22;9758;48.640;8.148;2023-05-14T00:20:56;15.20;53.20
19248;DHT22;9758;48.640;8.148;2023-05-14T00:23:23;15.10;52.60
19248;DHT22;9758;48.640;8.148;2023-05-14T00:25:51;15.10;52.60
19248;DHT22;9758;48.640;8.148;2023-05-14T00:28:18;15.10;52.60
19248;DHT22;9758;48.640;8.148;2023-05-14T00:30:45;15.10;52.60
19248;DHT22;9758;48.640;8.148;2023-05-14T00:33:12;15.00;52.50
19248;DHT22;9758;48.640;8.148;2023-05-14T00:35:39;15.00;52.60
19248;DHT22;9758;48.640;8.148;2023-05-14T00:38:05;15.00;52.60
19248;DHT22;9758;48.640;8.148;2023-05-14T00:40:32;14.90;52.70
19248;DHT22;9758;48.640;8.148;2023-05-14T00:43:01;14.90;52.70
19248;DHT22;9758;48.640;8.148;2023-05-14T00:45:28;14.90;52.70
19248;DHT22;9758;48.640;8.148;2023-05-14T00:47:55;14.80;52.90
19248;DHT22;9758;48.640;8.148;2023-05-14T00:50:22;14.80;52.90
19248;DHT22;9758;48.640;8.148;2023-05-14T00:52:49;14.70;52.90
19248;DHT22;9758;48.640;8.148;2023-05-14T00:55:16;14.70;53.00
19248;DHT22;9758;48.640;8.148;2023-05-14T00:57:43;14.60;53.00
19248;DHT22;9758;48.640;8.148;2023-05-14T01:00:12;14.60;53.00
19248;DHT22;9758;48.640;8.148;2023-05-14T01:02:39;14.60;53.10
19248;DHT22;9758;48.640;8.148;2023-05-14T01:05:06;14.50;53.20
19248;DHT22;9758;48.640;8.148;2023-05-14T01:07:38;14.50;53.20
19248;DHT22;9758;48.640;8.148;2023-05-14T01:10:12;14.50;53.30
19248;DHT22;9758;48.640;8.148;2023-05-14T01:12:47;14.40;53.30
19248;DHT22;9758;48.640;8.148;2023-05-14T01:15:20;14.40;53.30
19248;DHT22;9758;48.640;8.148;2023-05-14T01:17:52;14.40;53.30
19248;DHT22;9758;48.640;8.148;2023-05-14T01:20:19;14.40;53.30
19248;DHT22;9758;48.640;8.148;2023-05-14T01:22:48;14.40;53.30
19248;DHT22;9758;48.640;8.148;2023-05-14T01:25:15;14.40;53.30
19248;DHT22;9758;48.640;8.148;2023-05-14T01:27:47;14.40;53.30
19248;DHT22;9758;48.640;8.148;2023-05-14T01:30:20;14.40;53.20
19248;DHT22;9758;48.640;8.148;2023-05-14T01:32:50;14.50;53.30
19248;DHT22;9758;48.640;8.148;2023-05-14T01:35:17;14.50;53.20
19248;DHT22;9758;48.640;8.148;2023-05-14T01:37:44;14.50;53.20
19248;DHT22;9758;48.640;8.148;2023-05-14T01:40:14;14.50;53.20
19248;DHT22;9758;48.640;8.148;2023-05-14T01:42:41;14.50;53.10
19248;DHT22;9758;48.640;8.148;2023-05-14T01:45:09;14.50;53.10
19248;DHT22;9758;48.640;8.148;2023-05-14T01:47:36;14.50;53.10
19248;DHT22;9758;48.640;8.148;2023-05-14T01:50:03;14.50;53.10
19248;DHT22;9758;48.640;8.148;2023-05-14T01:52:30;14.50;53.10
19248;DHT22;9758;48.640;8.148;2023-05-14T01:54:57;14.50;53.10
19248;DHT22;9758;48.640;8.148;2023-05-14T01:57:25;14.50;53.10
19248;DHT22;9758;48.640;8.148;2023-05-14T01:59:52;14.50;53.10
19248;DHT22;9758;48.640;8.148;2023-05-14T02:02:19;14.50;53.20
19248;DHT22;9758;48.640;8.148;2023-05-14T02:04:46;14.50;53.20
19248;DHT22;9758;48.640;8.148;2023-05-14T02:07:12;14.40;53.10
19248;DHT22;9758;48.640;8.148;2023-05-14T02:09:39;14.40;53.20
19248;DHT22;9758;48.640;8.148;2023-05-14T02:12:07;14.40;53.20
19248;DHT22;9758;48.640;8.148;2023-05-14T02:14:36;14.40;53.20
19248;DHT22;9758;48.640;8.148;2023-05-14T02:17:04;14.30;53.20
19248;DHT22;9758;48.640;8.148;2023-05-14T02:19:31;14.30;53.30
19248;DHT22;9758;48.640;8.148;2023-05-14T02:21:58;14.40;53.30
19248;DHT22;9758;48.640;8.148;2023-05-14T02:24:25;14.30;53.30
19248;DHT22;9758;48.640;8.148;2023-05-14T02:26:52;14.30;53.30
19248;DHT22;9758;48.640;8.148;2023-05-14T02:29:19;14.30;53.30
19248;DHT22;9758;48.640;8.148;2023-05-14T02:31:47;14.40;53.30
19248;DHT22;9758;48.640;8.148;2023-05-14T02:34:14;14.30;53.30
19248;DHT22;9758;48.640;8.148;2023-05-14T02:36:40;14.30;53.30
19248;DHT22;9758;48.640;8.148;2023-05-14T02:39:07;14.30;53.40
19248;DHT22;9758;48.640;8.148;2023-05-14T02:41:34;14.30;53.30
19248;DHT22;9758;48.640;8.148;2023-05-14T02:44:01;14.30;53.40
19248;DHT22;9758;48.640;8.148;2023-05-14T02:46:27;14.20;53.40
19248;DHT22;9758;48.640;8.148;2023-05-14T02:48:55;14.20;53.40
19248;DHT22;9758;48.640;8.148;2023-05-14T02:51:22;14.20;53.50
19248;DHT22;9758;48.640;8.148;2023-05-14T02:53:49;14.20;53.50
19248;DHT22;9758;48.640;8.148;2023-05-14T02:56:16;14.20;53.50
19248;DHT22;9758;48.640;8.148;2023-05-14T02:58:43;14.10;53.50
19248;DHT22;9758;48.640;8.148;2023-05-14T03:01:10;14.10;53.60
19248;DHT22;9758;48.640;8.148;2023-05-14T03:03:36;14.10;53.60
19248;DHT22;9758;48.640;8.148;2023-05-14T03:06:05;14.10;53.70
19248;DHT22;9758;48.640;8.148;2023-05-14T03:08:32;14.10;53.70
19248;DHT22;9758;48.640;8.148;2023-05-14T03:10:58;14.10;53.70
19248;DHT22;9758;48.640;8.148;2023-05-14T03:13:25;14.10;53.70
19248;DHT22;9758;48.640;8.148;2023-05-14T03:15:52;14.10;53.70
19248;DHT22;9758;48.640;8.148;2023-05-14T03:18:20;14.10;53.70
19248;DHT22;9758;48.640;8.148;2023-05-14T03:20:47;14.20;53.80
19248;DHT22;9758;48.640;8.148;2023-05-14T03:23:15;14.20;53.80
19248;DHT22;9758;48.640;8.148;2023-05-14T03:25:42;14.20;53.70
19248;DHT22;9758;48.640;8.148;2023-05-14T03:28:08;14.20;53.80
19248;DHT22;9758;48.640;8.148;2023-05-14T03:30:35;14.30;53.80
19248;DHT22;9758;48.640;8.148;2023-05-14T03:33:02;14.30;53.80
19248;DHT22;9758;48.640;8.148;2023-05-14T03:35:29;14.30;53.70
19248;DHT22;9758;48.640;8.148;2023-05-14T03:37:56;14.30;53.70
19248;DHT22;9758;48.640;8.148;2023-05-14T03:40:25;14.40;53.80
19248;DHT22;9758;48.640;8.148;2023-05-14T03:42:52;14.40;53.70
19248;DHT22;9758;48.640;8.148;2023-05-14T03:45:18;14.40;53.70
19248;DHT22;9758;48.640;8.148;2023-05-14T03:47:47;14.40;53.70
19248;DHT22;9758;48.640;8.148;2023-05-14T03:50:14;14.50;53.70
19248;DHT22;9758;48.640;8.148;2023-05-14T03:52:41;14.50;53.70
19248;DHT22;9758;48.640;8.148;2023-05-14T03:55:09;14.50;53.70
19248;DHT22;9758;48.640;8.148;2023-05-14T03:57:37;14.50;53.80
19248;DHT22;9758;48.640;8.148;2023-05-14T04:00:05;14.60;54.40
19248;DHT22;9758;48.640;8.148;2023-05-14T04:02:39;14.60;53.80
19248;DHT22;9758;48.640;8.148;2023-05-14T04:05:06;14.60;53.80
19248;DHT22;9758;48.640;8.148;2023-05-14T04:07:33;14.60;53.80
19248;DHT22;9758;48.640;8.148;2023-05-14T04:10:00;14.60;53.80
19248;DHT22;9758;48.640;8.148;2023-05-14T04:12:27;14.70;53.90
19248;DHT22;9758;48.640;8.148;2023-05-14T04:14:56;14.70;53.80
19248;DHT22;9758;48.640;8.148;2023-05-14T04:17:23;14.70;53.80
19248;DHT22;9758;48.640;8.148;2023-05-14T04:19:50;14.70;53.70
19248;DHT22;9758;48.640;8.148;2023-05-14T04:22:17;14.70;53.70
19248;DHT22;9758;48.640;8.148;2023-05-14T04:24:43;14.60;53.80
19248;DHT22;9758;48.640;8.148;2023-05-14T04:27:10;14.60;53.90
19248;DHT22;9758;48.640;8.148;2023-05-14T04:29:37;14.70;54.00
19248;DHT22;9758;48.640;8.148;2023-05-14T04:32:06;14.70;54.00
19248;DHT22;9758;48.640;8.148;2023-05-14T04:34:33;14.70;53.90
19248;DHT22;9758;48.640;8.148;2023-05-14T04:37:00;14.70;53.90
19248;DHT22;9758;48.640;8.148;2023-05-14T04:39:28;14.70;53.90
19248;DHT22;9758;48.640;8.148;2023-05-14T04:41:54;14.80;53.90
19248;DHT22;9758;48.640;8.148;2023-05-14T04:44:21;14.80;54.00
19248;DHT22;9758;48.640;8.148;2023-05-14T04:46:48;14.80;54.00
19248;DHT22;9758;48.640;8.148;2023-05-14T04:49:16;14.90;54.00
19248;DHT22;9758;48.640;8.148;2023-05-14T04:51:50;14.90;54.00
19248;DHT22;9758;48.640;8.148;2023-05-14T04:54:17;14.90;54.00
19248;DHT22;9758;48.640;8.148;2023-05-14T04:56:44;14.90;54.00
19248;DHT22;9758;48.640;8.148;2023-05-14T04:59:12;15.00;54.00
19248;DHT22;9758;48.640;8.148;2023-05-14T05:01:38;15.00;54.00
19248;DHT22;9758;48.640;8.148;2023-05-14T05:04:05;15.00;54.00
19248;DHT22;9758;48.640;8.148;2023-05-14T05:06:33;15.00;54.00
19248;DHT22;9758;48.640;8.148;2023-05-14T05:09:00;15.00;54.00
19248;DHT22;9758;48.640;8.148;2023-05-14T05:11:27;15.00;54.00
19248;DHT22;9758;48.640;8.148;2023-05-14T05:13:54;15.00;54.00
19248;DHT22;9758;48.640;8.148;2023-05-14T05:16:20;15.00;54.20
19248;DHT22;9758;48.640;8.148;2023-05-14T05:18:47;15.00;54.20
19248;DHT22;9758;48.640;8.148;2023-05-14T05:21:14;15.00;54.10
19248;DHT22;9758;48.640;8.148;2023-05-14T05:23:42;15.00;54.10
19248;DHT22;9758;48.640;8.148;2023-05-14T05:26:09;15.10;54.20
19248;DHT22;9758;48.640;8.148;2023-05-14T05:28:36;15.10;54.10
19248;DHT22;9758;48.640;8.148;2023-05-14T05:31:02;15.10;54.10
19248;DHT22;9758;48.640;8.148;2023-05-14T05:33:29;15.10;54.10
19248;DHT22;9758;48.640;8.148;2023-05-14T05:35:56;15.10;54.20
19248;DHT22;9758;48.640;8.148;2023-05-14T05:38:23;15.10;54.20
19248;DHT22;9758;48.640;8.148;2023-05-14T05:40:51;15.10;54.10
19248;DHT22;9758;48.640;8.148;2023-05-14T05:43:18;15.10;54.20
19248;DHT22;9758;48.640;8.148;2023-05-14T05:45:44;15.20;54.20
19248;DHT22;9758;48.640;8.148;2023-05-14T05:48:11;15.30;54.30
19248;DHT22;9758;48.640;8.148;2023-05-14T05:50:38;15.30;54.20
19248;DHT22;9758;48.640;8.148;2023-05-14T05:53:05;15.40;54.20
19248;DHT22;9758;48.640;8.148;2023-05-14T05:55:32;15.40;54.20
19248;DHT22;9758;48.640;8.148;2023-05-14T05:58:00;15.50;54.10
19248;DHT22;9758;48.640;8.148;2023-05-14T06:00:26;15.50;54.10
19248;DHT22;9758;48.640;8.148;2023-05-14T06:02:53;15.50;54.10
19248;DHT22;9758;48.640;8.148;2023-05-14T06:05:20;15.50;54.10
19248;DHT22;9758;48.640;8.148;2023-05-14T06:07:47;15.40;54.10
19248;DHT22;9758;48.640;8.148;2023-05-14T06:10:14;15.40;54.30
19248;DHT22;9758;48.640;8.148;2023-05-14T06:12:40;15.30;54.40
19248;DHT22;9758;48.640;8.148;2023-05-14T06:15:10;15.30;54.40
19248;DHT22;9758;48.640;8.148;2023-05-14T06:17:37;15.40;54.50
19248;DHT22;9758;48.640;8.148;2023-05-14T06:20:05;15.40;54.50
19248;DHT22;9758;48.640;8.148;2023-05-14T06:22:33;15.50;54.50
19248;DHT22;9758;48.640;8.148;2023-05-14T06:25:00;15.50;54.40
19248;DHT22;9758;48.640;8.148;2023-05-14T06:27:26;15.60;54.40
19248;DHT22;9758;48.640;8.148;2023-05-14T06:29:53;15.60;54.40
19248;DHT22;9758;48.640;8.148;2023-05-14T06:32:21;15.70;54.40
19248;DHT22;9758;48.640;8.148;2023-05-14T06:34:48;15.70;54.30
19248;DHT22;9758;48.640;8.148;2023-05-14T06:37:15;15.80;54.30
19248;DHT22;9758;48.640;8.148;2023-05-14T06:39:42;15.80;54.30
19248;DHT22;9758;48.640;8.148;2023-05-14T06:42:14;15.80;54.20
19248;DHT22;9758;48.640;8.148;2023-05-14T06:44:41;15.80;54.20
19248;DHT22;9758;48.640;8.148;2023-05-14T06:47:09;15.90;54.50
19248;DHT22;9758;48.640;8.148;2023-05-14T06:49:38;15.80;54.50
19248;DHT22;9758;48.640;8.148;2023-05-14T06:52:05;15.80;54.70
19248;DHT22;9758;48.640;8.148;2023-05-14T06:54:32;15.80;54.60
19248;DHT22;9758;48.640;8.148;2023-05-14T06:56:59;15.90;54.70
19248;DHT22;9758;48.640;8.148;2023-05-14T06:59:25;15.90;54.60
19248;DHT22;9758;48.640;8.148;2023-05-14T07:02:01;16.00;54.70
19248;DHT22;9758;48.640;8.148;2023-05-14T07:04:28;16.10;54.60
19248;DHT22;9758;48.640;8.148;2023-05-14T07:06:56;16.10;54.50
19248;DHT22;9758;48.640;8.148;2023-05-14T07:09:23;16.10;54.60
19248;DHT22;9758;48.640;8.148;2023-05-14T07:11:50;16.20;54.60
19248;DHT22;9758;48.640;8.148;2023-05-14T07:14:16;16.30;54.60
19248;DHT22;9758;48.640;8.148;2023-05-14T07:16:43;16.40;54.60
19248;DHT22;9758;48.640;8.148;2023-05-14T07:19:11;16.50;54.60
19248;DHT22;9758;48.640;8.148;2023-05-14T07:21:38;16.60;54.40
19248;DHT22;9758;48.640;8.148;2023-05-14T07:24:06;16.80;54.40
19248;DHT22;9758;48.640;8.148;2023-05-14T07:26:33;16.80;54.20
19248;DHT22;9758;48.640;8.148;2023-05-14T07:29:00;16.80;54.30
19248;DHT22;9758;48.640;8.148;2023-05-14T07:31:26;16.90;54.30
19248;DHT22;9758;48.640;8.148;2023-05-14T07:33:59;17.00;54.30
19248;DHT22;9758;48.640;8.148;2023-05-14T07:36:26;17.10;54.30
19248;DHT22;9758;48.640;8.148;2023-05-14T07:38:53;17.10;54.20
19248;DHT22;9758;48.640;8.148;2023-05-14T07:41:21;17.20;54.10
19248;DHT22;9758;48.640;8.148;2023-05-14T07:43:48;17.30;54.20
19248;DHT22;9758;48.640;8.148;2023-05-14T07:46:14;17.30;54.20
19248;DHT22;9758;48.640;8.148;2023-05-14T07:48:41;17.40;54.20
19248;DHT22;9758;48.640;8.148;2023-05-14T07:51:08;17.40;54.00
19248;DHT22;9758;48.640;8.148;2023-05-14T07:53:36;17.50;53.90
19248;DHT22;9758;48.640;8.148;2023-05-14T07:56:03;17.60;53.90
19248;DHT22;9758;48.640;8.148;2023-05-14T07:58:31;17.60;53.80
19248;DHT22;9758;48.640;8.148;2023-05-14T08:00:59;17.70;53.70
19248;DHT22;9758;48.640;8.148;2023-05-14T08:03:28;17.60;53.70
19248;DHT22;9758;48.640;8.148;2023-05-14T08:05:55;17.70;53.70
19248;DHT22;9758;48.640;8.148;2023-05-14T08:08:22;17.70;53.60
19248;DHT22;9758;48.640;8.148;2023-05-14T08:10:49;17.70;53.50
19248;DHT22;9758;48.640;8.148;2023-05-14T08:13:16;17.80;53.60
19248;DHT22;9758;48.640;8.148;2023-05-14T08:15:44;17.70;53.50
19248;DHT22;9758;48.640;8.148;2023-05-14T08:18:11;17.70;53.40
19248;DHT22;9758;48.640;8.148;2023-05-14T08:20:38;17.70;53.50
19248;DHT22;9758;48.640;8.148;2023-05-14T08:23:05;17.70;53.50
19248;DHT22;9758;48.640;8.148;2023-05-14T08:25:32;17.70;53.50
19248;DHT22;9758;48.640;8.148;2023-05-14T08:27:59;17.70;53.60
19248;DHT22;9758;48.640;8.148;2023-05-14T08:30:26;17.80;53.60
19248;DHT22;9758;48.640;8.148;2023-05-14T08:32:54;17.80;53.60
19248;DHT22;9758;48.640;8.148;2023-05-14T08:35:21;17.80;53.70
19248;DHT22;9758;48.640;8.148;2023-05-14T08:37:48;17.90;53.80
19248;DHT22;9758;48.640;8.148;2023-05-14T08:40:16;18.00;53.90
19248;DHT22;9758;48.640;8.148;2023-05-14T08:42:43;18.30;54.10
19248;DHT22;9758;48.640;8.148;2023-05-14T08:45:17;18.40;53.80
19248;DHT22;9758;48.640;8.148;2023-05-14T08:47:46;18.60;53.70
19248;DHT22;9758;48.640;8.148;2023-05-14T08:50:15;18.80;53.20
19248;DHT22;9758;48.640;8.148;2023-05-14T08:52:42;18.90;53.00
19248;DHT22;9758;48.640;8.148;2023-05-14T08:55:11;18.80;52.90
19248;DHT22;9758;48.640;8.148;2023-05-14T08:57:38;18.80;52.80
19248;DHT22;9758;48.640;8.148;2023-05-14T09:00:05;18.80;52.90
19248;DHT22;9758;48.640;8.148;2023-05-14T09:02:38;18.70;52.80
19248;DHT22;9758;48.640;8.148;2023-05-14T09:05:06;18.70;52.90
19248;DHT22;9758;48.640;8.148;2023-05-14T09:07:35;18.70;52.90
19248;DHT22;9758;48.640;8.148;2023-05-14T09:10:02;18.70;53.00
19248;DHT22;9758;48.640;8.148;2023-05-14T09:12:29;18.80;53.00
19248;DHT22;9758;48.640;8.148;2023-05-14T09:14:56;18.90;52.90
19248;DHT22;9758;48.640;8.148;2023-05-14T09:17:24;18.90;52.70
19248;DHT22;9758;48.640;8.148;2023-05-14T09:19:52;18.90;52.70
19248;DHT22;9758;48.640;8.148;2023-05-14T09:22:19;18.90;52.70
19248;DHT22;9758;48.640;8.148;2023-05-14T09:25:01;18.90;52.60
19248;DHT22;9758;48.640;8.148;2023-05-14T09:27:29;18.90;52.70
19248;DHT22;9758;48.640;8.148;2023-05-14T09:30:03;19.00;52.80
19248;DHT22;9758;48.640;8.148;2023-05-14T09:32:34;19.00;52.70
19248;DHT22;9758;48.640;8.148;2023-05-14T09:35:31;19.10;53.20
19248;DHT22;9758;48.640;8.148;2023-05-14T09:37:58;19.10;52.60
19248;DHT22;9758;48.640;8.148;2023-05-14T09:40:26;19.20;52.60
19248;DHT22;9758;48.640;8.148;2023-05-14T09:43:03;19.30;52.60
19248;DHT22;9758;48.640;8.148;2023-05-14T09:45:30;19.40;52.30
19248;DHT22;9758;48.640;8.148;2023-05-14T09:47:58;19.40;52.20
19248;DHT22;9758;48.640;8.148;2023-05-14T09:50:26;19.40;52.40
19248;DHT22;9758;48.640;8.148;2023-05-14T09:52:54;19.50;52.50
19248;DHT22;9758;48.640;8.148;2023-05-14T09:55:21;19.50;52.20
19248;DHT22;9758;48.640;8.148;2023-05-14T09:57:49;19.60;52.10
19248;DHT22;9758;48.640;8.148;2023-05-14T10:00:17;19.60;52.00
19248;DHT22;9758;48.640;8.148;2023-05-14T10:02:45;19.60;52.10
19248;DHT22;9758;48.640;8.148;2023-05-14T10:05:12;19.60;52.10
19248;DHT22;9758;48.640;8.148;2023-05-14T10:07:43;19.70;52.00
19248;DHT22;9758;48.640;8.148;2023-05-14T10:10:15;19.80;52.00
19248;DHT22;9758;48.640;8.148;2023-05-14T10:12:44;19.90;52.00
19248;DHT22;9758;48.640;8.148;2023-05-14T10:15:18;19.90;51.50
19248;DHT22;9758;48.640;8.148;2023-05-14T10:17:48;19.90;51.40
19248;DHT22;9758;48.640;8.148;2023-05-14T10:20:15;19.90;51.60
19248;DHT22;9758;48.640;8.148;2023-05-14T10:22:42;19.90;51.60
19248;DHT22;9758;48.640;8.148;2023-05-14T10:25:09;19.90;51.60
19248;DHT22;9758;48.640;8.148;2023-05-14T10:27:36;20.00;51.80
19248;DHT22;9758;48.640;8.148;2023-05-14T10:30:09;20.00;51.70
19248;DHT22;9758;48.640;8.148;2023-05-14T10:32:38;20.20;51.70
19248;DHT22;9758;48.640;8.148;2023-05-14T10:35:15;20.30;51.60
19248;DHT22;9758;48.640;8.148;2023-05-14T10:37:43;20.40;51.30
19248;DHT22;9758;48.640;8.148;2023-05-14T10:40:11;20.50;51.20
19248;DHT22;9758;48.640;8.148;2023-05-14T10:42:38;20.50;51.10
19248;DHT22;9758;48.640;8.148;2023-05-14T10:45:09;20.60;51.00
19248;DHT22;9758;48.640;8.148;2023-05-14T10:47:38;20.60;50.90
19248;DHT22;9758;48.640;8.148;2023-05-14T10:50:07;20.60;50.60
19248;DHT22;9758;48.640;8.148;2023-05-14T10:52:34;20.70;50.90
19248;DHT22;9758;48.640;8.148;2023-05-14T10:55:03;20.70;50.50
19248;DHT22;9758;48.640;8.148;2023-05-14T10:57:34;20.70;50.30
19248;DHT22;9758;48.640;8.148;2023-05-14T11:00:02;20.70;50.70
19248;DHT22;9758;48.640;8.148;2023-05-14T11:02:33;20.70;50.30
19248;DHT22;9758;48.640;8.148;2023-05-14T11:05:03;20.80;50.70
19248;DHT22;9758;48.640;8.148;2023-05-14T11:07:32;20.80;50.50
19248;DHT22;9758;48.640;8.148;2023-05-14T11:10:02;20.90;50.40
19248;DHT22;9758;48.640;8.148;2023-05-14T11:12:29;21.00;50.70
19248;DHT22;9758;48.640;8.148;2023-05-14T11:14:57;21.20;50.60
19248;DHT22;9758;48.640;8.148;2023-05-14T11:17:25;21.30;50.50
19248;DHT22;9758;48.640;8.148;2023-05-14T11:19:52;21.40;50.40
19248;DHT22;9758;48.640;8.148;2023-05-14T11:22:20;21.50;50.20
19248;DHT22;9758;48.640;8.148;2023-05-14T11:24:47;21.70;50.00
19248;DHT22;9758;48.640;8.148;2023-05-14T11:27:14;21.70;49.80
19248;DHT22;9758;48.640;8.148;2023-05-14T11:29:43;21.80;49.20
19248;DHT22;9758;48.640;8.148;2023-05-14T11:32:10;21.70;49.60
19248;DHT22;9758;48.640;8.148;2023-05-14T11:34:37;21.70;49.80
19248;DHT22;9758;48.640;8.148;2023-05-14T11:37:05;21.70;49.80
19248;DHT22;9758;48.640;8.148;2023-05-14T11:39:34;21.80;49.30
19248;DHT22;9758;48.640;8.148;2023-05-14T11:42:02;21.80;49.20
19248;DHT22;9758;48.640;8.148;2023-05-14T11:44:29;21.70;49.40
19248;DHT22;9758;48.640;8.148;2023-05-14T11:46:56;21.70;49.50
19248;DHT22;9758;48.640;8.148;2023-05-14T11:49:24;21.70;49.30
19248;DHT22;9758;48.640;8.148;2023-05-14T11:51:56;21.70;49.60
19248;DHT22;9758;48.640;8.148;2023-05-14T11:54:25;21.80;49.90
19248;DHT22;9758;48.640;8.148;2023-05-14T11:56:53;21.90;49.70
19248;DHT22;9758;48.640;8.148;2023-05-14T11:59:22;22.00;49.50
19248;DHT22;9758;48.640;8.148;2023-05-14T12:01:49;22.00;49.30
19248;DHT22;9758;48.640;8.148;2023-05-14T12:04:17;22.00;49.40
19248;DHT22;9758;48.640;8.148;2023-05-14T12:06:46;22.00;49.10
19248;DHT22;9758;48.640;8.148;2023-05-14T12:09:15;22.00;49.20
19248;DHT22;9758;48.640;8.148;2023-05-14T12:11:42;22.00;49.40
19248;DHT22;9758;48.640;8.148;2023-05-14T12:14:12;22.00;49.10
19248;DHT22;9758;48.640;8.148;2023-05-14T12:16:40;22.00;49.10
19248;DHT22;9758;48.640;8.148;2023-05-14T12:19:08;22.00;49.90
19248;DHT22;9758;48.640;8.148;2023-05-14T12:21:36;22.00;49.20
19248;DHT22;9758;48.640;8.148;2023-05-14T12:24:03;22.00;49.30
19248;DHT22;9758;48.640;8.148;2023-05-14T12:26:32;22.00;49.30
19248;DHT22;9758;48.640;8.148;2023-05-14T12:29:00;22.00;49.10
19248;DHT22;9758;48.640;8.148;2023-05-14T12:31:29;21.90;49.00
19248;DHT22;9758;48.640;8.148;2023-05-14T12:33:56;21.90;49.20
19248;DHT22;9758;48.640;8.148;2023-05-14T12:36:23;21.90;49.50
19248;DHT22;9758;48.640;8.148;2023-05-14T12:38:55;21.90;49.50
19248;DHT22;9758;48.640;8.148;2023-05-14T12:41:22;22.00;49.00
19248;DHT22;9758;48.640;8.148;2023-05-14T12:43:49;22.10;49.20
19248;DHT22;9758;48.640;8.148;2023-05-14T12:46:15;22.10;49.00
19248;DHT22;9758;48.640;8.148;2023-05-14T12:48:44;22.20;49.10
19248;DHT22;9758;48.640;8.148;2023-05-14T12:51:11;22.20;49.10
19248;DHT22;9758;48.640;8.148;2023-05-14T12:53:38;22.30;49.10
19248;DHT22;9758;48.640;8.148;2023-05-14T12:56:05;22.40;48.80
19248;DHT22;9758;48.640;8.148;2023-05-14T12:58:32;22.40;48.20
19248;DHT22;9758;48.640;8.148;2023-05-14T13:00:59;22.50;48.70
19248;DHT22;9758;48.640;8.148;2023-05-14T13:03:25;22.60;48.80
19248;DHT22;9758;48.640;8.148;2023-05-14T13:05:56;22.70;48.20
19248;DHT22;9758;48.640;8.148;2023-05-14T13:08:23;22.80;48.10
19248;DHT22;9758;48.640;8.148;2023-05-14T13:10:50;22.70;48.30
19248;DHT22;9758;48.640;8.148;2023-05-14T13:13:17;22.80;48.20
19248;DHT22;9758;48.640;8.148;2023-05-14T13:15:44;22.80;48.30
19248;DHT22;9758;48.640;8.148;2023-05-14T13:18:11;22.80;47.70
19248;DHT22;9758;48.640;8.148;2023-05-14T13:20:38;22.80;47.90
19248;DHT22;9758;48.640;8.148;2023-05-14T13:23:06;22.80;48.00
19248;DHT22;9758;48.640;8.148;2023-05-14T13:25:33;22.80;48.20
19248;DHT22;9758;48.640;8.148;2023-05-14T13:27:59;22.90;48.20
19248;DHT22;9758;48.640;8.148;2023-05-14T13:30:26;23.00;47.90
19248;DHT22;9758;48.640;8.148;2023-05-14T13:32:53;23.00;47.90
19248;DHT22;9758;48.640;8.148;2023-05-14T13:35:20;23.00;47.40
19248;DHT22;9758;48.640;8.148;2023-05-14T13:37:47;23.00;47.60
19248;DHT22;9758;48.640;8.148;2023-05-14T13:40:15;23.00;47.90
19248;DHT22;9758;48.640;8.148;2023-05-14T13:42:42;23.00;47.80
19248;DHT22;9758;48.640;8.148;2023-05-14T13:45:09;23.00;47.70
19248;DHT22;9758;48.640;8.148;2023-05-14T13:47:37;23.00;47.80
19248;DHT22;9758;48.640;8.148;2023-05-14T13:50:05;23.10;47.60
19248;DHT22;9758;48.640;8.148;2023-05-14T13:52:51;23.20;47.50
19248;DHT22;9758;48.640;8.148;2023-05-14T13:55:19;23.20;47.40
19248;DHT22;9758;48.640;8.148;2023-05-14T13:57:45;23.20;47.30
19248;DHT22;9758;48.640;8.148;2023-05-14T14:00:13;23.30;47.60
19248;DHT22;9758;48.640;8.148;2023-05-14T14:02:40;23.40;47.60
19248;DHT22;9758;48.640;8.148;2023-05-14T14:05:08;23.50;47.30
19248;DHT22;9758;48.640;8.148;2023-05-14T14:07:34;23.60;47.30
19248;DHT22;9758;48.640;8.148;2023-05-14T14:10:01;23.70;46.50
19248;DHT22;9758;48.640;8.148;2023-05-14T14:12:30;23.60;46.60
19248;DHT22;9758;48.640;8.148;2023-05-14T14:14:57;23.50;46.30
19248;DHT22;9758;48.640;8.148;2023-05-14T14:17:25;23.40;46.50
19248;DHT22;9758;48.640;8.148;2023-05-14T14:19:52;23.30;47.10
19248;DHT22;9758;48.640;8.148;2023-05-14T14:22:18;23.30;47.00
19248;DHT22;9758;48.640;8.148;2023-05-14T14:24:45;23.40;46.90
19248;DHT22;9758;48.640;8.148;2023-05-14T14:27:12;23.40;46.80
19248;DHT22;9758;48.640;8.148;2023-05-14T14:29:40;23.40;46.90
19248;DHT22;9758;48.640;8.148;2023-05-14T14:32:07;23.50;46.70
19248;DHT22;9758;48.640;8.148;2023-05-14T14:34:35;23.50;46.60
19248;DHT22;9758;48.640;8.148;2023-05-14T14:37:02;23.40;46.60
19248;DHT22;9758;48.640;8.148;2023-05-14T14:39:28;23.40;46.60
19248;DHT22;9758;48.640;8.148;2023-05-14T14:41:55;23.50;46.80
19248;DHT22;9758;48.640;8.148;2023-05-14T14:44:24;23.40;46.40
19248;DHT22;9758;48.640;8.148;2023-05-14T14:46:52;23.50;46.80
19248;DHT22;9758;48.640;8.148;2023-05-14T14:49:19;23.50;46.90
19248;DHT22;9758;48.640;8.148;2023-05-14T14:51:46;23.60;46.80
19248;DHT22;9758;48.640;8.148;2023-05-14T14:54:12;23.70;46.60
19248;DHT22;9758;48.640;8.148;2023-05-14T14:56:39;23.70;46.60
19248;DHT22;9758;48.640;8.148;2023-05-14T14:59:07;23.70;46.40
19248;DHT22;9758;48.640;8.148;2023-05-14T15:01:39;23.70;45.90
19248;DHT22;9758;48.640;8.148;2023-05-14T15:04:07;23.70;46.30
19248;DHT22;9758;48.640;8.148;2023-05-14T15:06:34;23.70;46.20
19248;DHT22;9758;48.640;8.148;2023-05-14T15:09:01;23.70;46.50
19248;DHT22;9758;48.640;8.148;2023-05-14T15:11:27;23.70;46.50
19248;DHT22;9758;48.640;8.148;2023-05-14T15:13:54;23.80;46.30
19248;DHT22;9758;48.640;8.148;2023-05-14T15:16:21;24.00;46.50
19248;DHT22;9758;48.640;8.148;2023-05-14T15:18:48;24.20;46.00
19248;DHT22;9758;48.640;8.148;2023-05-14T15:21:16;24.60;46.70
19248;DHT22;9758;48.640;8.148;2023-05-14T15:23:43;25.30;47.70
19248;DHT22;9758;48.640;8.148;2023-05-14T15:26:10;26.30;48.10
19248;DHT22;9758;48.640;8.148;2023-05-14T15:28:37;27.70;47.80
19248;DHT22;9758;48.640;8.148;2023-05-14T15:31:04;28.90;46.60
19248;DHT22;9758;48.640;8.148;2023-05-14T15:33:31;30.00;45.70
19248;DHT22;9758;48.640;8.148;2023-05-14T15:35:58;31.20;44.80
19248;DHT22;9758;48.640;8.148;2023-05-14T15:38:27;31.80;43.20
19248;DHT22;9758;48.640;8.148;2023-05-14T15:40:53;31.90;42.20
19248;DHT22;9758;48.640;8.148;2023-05-14T15:43:20;31.50;41.60
19248;DHT22;9758;48.640;8.148;2023-05-14T15:45:47;30.90;41.20
19248;DHT22;9758;48.640;8.148;2023-05-14T15:48:26;30.20;41.80